Terminal Aerodrome Forecast
Issued by NWS

Current Version | Previous Version | Text Only | Print | Product List | Glossary Off
Versions: 1 2 3 4 5 6 7 8 9 10 11 12 13 14 15 16 17 18 19 20 21 22 23 24 25

000
FTUS41 KILN 290500
TAFLCK
TAF
KLCK 290525Z 2906/3006 13003KT P6SM SCT120
     FM291000 14006KT P6SM VCSH SCT040 BKN080
     FM291300 16008KT 5SM -SHRA BKN040
     FM291600 17012G18KT P6SM VCSH BKN040
     FM291900 18012G20KT P6SM VCTS BKN040CB
     FM300000 19012KT P6SM VCSH BKN035
     FM300400 23010KT P6SM BKN035=

USA.gov is the U.S. government's official web portal to all federal, state and local government web resources and services.